Domov               UVHVVR             MKGP            O straneh              
ZDRAVSTVENO VARSTVO RASTLIN
  MREŽA AGROMET. POSTAJ
 ► PROGNOSTIČNA OBVESTILA
AGROMETEOROLOŠKI PODATKI -
ARSO
OBVLADOVANJE TVEGANJ ZARADI
NEUGODNIH VREMENSKIH RAZMER
  ► NARAVNE NESREČE
  ► SUŠA/MOČA
  ► NAMAKANJE
  ► ŽLED (gozdarstvo)
KARTOGRAFSKI PRIKAZI
SPLETNE POVEZAVE
PROJEKTI IN PUBLIKACIJE

AGROMETEOROLOŠKA MREŽA: VREMENSKE POSTAJE IN FENOLOŠKA OPAZOVANJA

Pregled podatkov za lokacijo Labor, meteorološka postaja 42414

Pregled senzorjev na lokaciji

ID Ime Zadnja
vrednost
Datum
zadnje
spremembe
Tip
senzorja
2099 Temperatura 2 m ( °C) 12,48 °C 21.10.2017 00:30 50YA
2100 Relativna vlaga 2 m (% RH) 83,65 % RH 21.10.2017 00:30 50YA
2101 Omočenost lista (U) 10 U 21.10.2017 00:30 A730WET
2102 Padavine 0.2 mm (mm) 0 mm 21.10.2017 00:30 Rain-O-Matic

Pregled podatkov zadnjih 24 ur

Zap.
št.
Datum in čas Labor
Omočenost
lista
Padavine
0.2
mm
Relativna
vlaga
2
m
Temperatura
2
m
0 20.10.2017 23:30 10 0 83,65 12,48
1 20.10.2017 23:00 10 0 87,22 11,83
2 20.10.2017 22:30 10 0 87,91 11,69
3 20.10.2017 22:00 1 0 82,41 12,66
4 20.10.2017 21:30 1 0 83,1 12,59
5 20.10.2017 21:00 3 0 85,14 12,15
6 20.10.2017 20:30 2 0 82,42 12,35
7 20.10.2017 20:00 1 0 81,76 12,56
8 20.10.2017 19:30 2 0 84,42 12,65
9 20.10.2017 19:00 3 0 86,37 12,59
10 20.10.2017 18:30 1 0 85,32 12,85
11 20.10.2017 18:00 1 0 85,58 12,87
12 20.10.2017 17:30 2 0 86,58 12,86
13 20.10.2017 17:00 1 0 85,62 13,1
14 20.10.2017 16:30 0 0 84,14 13,49
15 20.10.2017 16:00 0 0 81,84 13,94
16 20.10.2017 15:30 0 0 80,9 14,22
17 20.10.2017 15:00 0 0 81,09 14,28
18 20.10.2017 14:30 0 0 81,1 14,36
19 20.10.2017 14:00 0 0 82,12 14,51
20 20.10.2017 13:30 0 0 84,04 14,34
21 20.10.2017 13:00 0 0 85,1 14,33
22 20.10.2017 12:30 0 0 80,46 14,64
23 20.10.2017 12:00 0 0 75,92 14,79
24 20.10.2017 11:30 0 0 79,37 14,05
25 20.10.2017 11:00 0 0 81 13,66
26 20.10.2017 10:30 0 0 79,6 13,78
27 20.10.2017 10:00 0 0 79,61 13,69
28 20.10.2017 09:30 0 0 81,33 13,28
29 20.10.2017 09:00 0 0 85,06 12,6
30 20.10.2017 08:30 1 0 91,9 12,02
31 20.10.2017 08:00 10 0 95,92 11,55
32 20.10.2017 07:30 10 0 97,4 11,32
33 20.10.2017 07:00 10 0 97,42 11,07
34 20.10.2017 06:30 10 0 97,3 11,16
35 20.10.2017 06:00 10 0 97,27 11,26
36 20.10.2017 05:30 10 0 97,19 11,23
37 20.10.2017 05:00 10 0 97,27 10,99
38 20.10.2017 04:30 10 0 97,18 11,06
39 20.10.2017 04:00 10 0 97,25 11,31
40 20.10.2017 03:30 10 0 97,19 11,25
41 20.10.2017 03:00 10 0 97,24 11,34
42 20.10.2017 02:30 10 0 97,25 11,51
43 20.10.2017 02:00 10 0 97,22 11,51
44 20.10.2017 01:30 10 0 97,19 11,61
© 2011 Ministrstvo za kmetijstvo, gozdarstvo in prehrano. Vse pravice pridržane.